createdAt,value
2023-05-16T00:01:20.091Z,45.69
2023-05-16T00:03:47.234Z,45.96
2023-05-16T00:06:15.710Z,46.02
2023-05-16T00:08:43.013Z,46.17
2023-05-16T00:11:10.234Z,46.17
2023-05-16T00:13:37.990Z,46.45
2023-05-16T00:16:05.562Z,46.70
2023-05-16T00:18:32.686Z,47.05
2023-05-16T00:21:00.264Z,47.37
2023-05-16T00:23:27.212Z,47.40
2023-05-16T00:25:54.418Z,47.88
2023-05-16T00:28:21.730Z,48.13
2023-05-16T00:30:48.969Z,48.03
2023-05-16T00:33:17.487Z,48.00
2023-05-16T00:35:44.914Z,47.81
2023-05-16T00:38:12.163Z,48.11
2023-05-16T00:40:39.636Z,48.00
2023-05-16T00:43:06.868Z,48.15
2023-05-16T00:45:34.139Z,48.29
2023-05-16T00:48:01.834Z,48.21
2023-05-16T00:50:29.264Z,47.97
2023-05-16T00:52:56.421Z,47.85
2023-05-16T00:55:23.646Z,47.66
2023-05-16T00:57:50.774Z,47.40
2023-05-16T01:00:20.230Z,47.44
2023-05-16T01:02:48.408Z,47.36
2023-05-16T01:05:15.731Z,47.09
2023-05-16T01:07:42.929Z,46.99
2023-05-16T01:10:10.748Z,46.98
2023-05-16T01:12:43.409Z,47.12
2023-05-16T01:15:33.207Z,46.96
2023-05-16T01:18:22.723Z,46.83
2023-05-16T01:20:55.973Z,46.75
2023-05-16T01:24:01.728Z,46.79
2023-05-16T01:26:30.721Z,46.49
2023-05-16T01:28:57.776Z,46.40
2023-05-16T01:31:24.967Z,46.24
2023-05-16T01:33:54.326Z,46.12
2023-05-16T01:36:37.176Z,46.04
2023-05-16T01:39:16.894Z,46.06
2023-05-16T01:41:53.264Z,45.86
2023-05-16T01:44:32.199Z,45.67
2023-05-16T01:47:00.611Z,45.46
2023-05-16T01:49:35.338Z,45.36
2023-05-16T01:52:15.546Z,45.12
2023-05-16T01:54:46.459Z,44.85
2023-05-16T01:57:13.636Z,44.73
2023-05-16T01:59:41.651Z,44.59
2023-05-16T02:02:11.519Z,44.48
2023-05-16T02:04:38.525Z,44.24
2023-05-16T02:07:06.250Z,44.26
2023-05-16T02:09:35.427Z,44.45
2023-05-16T02:12:03.308Z,44.21
2023-05-16T02:14:30.662Z,44.33
2023-05-16T02:16:59.703Z,44.22
2023-05-16T02:19:26.795Z,44.35
2023-05-16T02:21:53.865Z,44.41
2023-05-16T02:24:21.606Z,44.44
2023-05-16T02:26:48.759Z,44.40
2023-05-16T02:29:16.838Z,44.41
2023-05-16T02:31:47.181Z,44.49
2023-05-16T02:34:15.739Z,44.65
2023-05-16T02:36:42.795Z,44.66
2023-05-16T02:39:10.684Z,44.94
2023-05-16T02:41:37.805Z,45.16
2023-05-16T02:44:04.964Z,45.30
2023-05-16T02:46:34.943Z,45.63
2023-05-16T02:49:04.069Z,45.74
2023-05-16T02:51:31.651Z,45.96
2023-05-16T02:54:02.651Z,46.01
2023-05-16T02:56:29.888Z,46.11
2023-05-16T02:58:56.888Z,46.23
2023-05-16T03:01:25.265Z,46.31
2023-05-16T03:03:52.471Z,46.38
2023-05-16T03:06:19.648Z,46.49
2023-05-16T03:08:50.384Z,46.31
2023-05-16T03:11:20.936Z,46.24
2023-05-16T03:13:48.063Z,46.09
2023-05-16T03:16:16.938Z,46.13
2023-05-16T03:18:45.497Z,46.15
2023-05-16T03:21:12.596Z,46.14
2023-05-16T03:23:40.050Z,46.29
2023-05-16T03:26:07.917Z,46.38
2023-05-16T03:28:35.143Z,46.53
2023-05-16T03:31:02.496Z,46.76
2023-05-16T03:33:29.442Z,47.16
2023-05-16T03:35:56.699Z,47.26
2023-05-16T03:38:24.257Z,47.77
2023-05-16T03:40:51.516Z,48.32
2023-05-16T03:43:18.556Z,48.65
2023-05-16T03:45:46.277Z,49.01
2023-05-16T03:48:13.405Z,49.49
2023-05-16T03:50:41.222Z,49.75
2023-05-16T03:53:09.297Z,49.97
2023-05-16T03:55:36.364Z,50.18
2023-05-16T03:58:03.296Z,50.31
2023-05-16T04:00:30.445Z,50.27
2023-05-16T04:02:57.488Z,50.19
2023-05-16T04:05:24.895Z,50.16
2023-05-16T04:07:53.859Z,50.34
2023-05-16T04:10:21.084Z,50.23
2023-05-16T04:12:48.144Z,50.15
2023-05-16T04:15:15.064Z,49.99
2023-05-16T04:17:42.192Z,49.99
2023-05-16T04:20:09.901Z,49.79
2023-05-16T04:22:36.960Z,49.43
2023-05-16T04:25:04.617Z,49.23
2023-05-16T04:27:31.767Z,49.30
2023-05-16T04:30:00.337Z,49.23
2023-05-16T04:32:29.246Z,49.31
2023-05-16T04:34:56.501Z,49.19
2023-05-16T04:37:23.750Z,49.27
2023-05-16T04:39:51.817Z,49.44
2023-05-16T04:42:18.969Z,49.35
2023-05-16T04:44:48.044Z,48.92
2023-05-16T04:47:15.448Z,48.55
2023-05-16T04:49:42.701Z,48.38
2023-05-16T04:52:10.180Z,47.29
2023-05-16T04:54:39.982Z,47.18
2023-05-16T04:57:07.029Z,47.12
2023-05-16T04:59:34.272Z,46.59
2023-05-16T05:02:01.456Z,45.81
2023-05-16T05:04:28.497Z,45.99
2023-05-16T05:06:55.514Z,45.78
2023-05-16T05:09:22.474Z,45.08
2023-05-16T05:11:49.414Z,44.87
2023-05-16T05:14:16.349Z,44.91
2023-05-16T05:16:43.402Z,44.40
2023-05-16T05:19:10.600Z,44.37
2023-05-16T05:21:37.894Z,44.18
2023-05-16T05:24:05.674Z,44.47
2023-05-16T05:26:32.829Z,44.85
2023-05-16T05:29:05.129Z,44.23
2023-05-16T05:31:35.136Z,44.26
2023-05-16T05:34:03.381Z,44.31
2023-05-16T05:36:31.147Z,44.13
2023-05-16T05:38:58.197Z,44.40
2023-05-16T05:41:25.144Z,43.81
2023-05-16T05:43:52.599Z,43.32
2023-05-16T05:46:19.703Z,43.47
2023-05-16T05:48:46.899Z,43.82
2023-05-16T05:51:14.488Z,43.60
2023-05-16T05:53:41.978Z,43.51
2023-05-16T05:56:09.688Z,43.71
2023-05-16T05:58:36.734Z,44.00
2023-05-16T06:01:04.295Z,44.18
2023-05-16T06:03:32.169Z,45.08
2023-05-16T06:05:59.402Z,45.89
2023-05-16T06:08:26.684Z,46.96
2023-05-16T06:10:54.534Z,47.86
2023-05-16T06:13:21.839Z,48.51
2023-05-16T06:15:52.991Z,49.68
2023-05-16T06:18:21.152Z,50.21
2023-05-16T06:20:48.121Z,50.27
2023-05-16T06:25:10.075Z,50.13
2023-05-16T06:27:37.417Z,49.28
2023-05-16T06:30:05.015Z,49.02
2023-05-16T06:32:32.804Z,49.40
2023-05-16T06:35:00.690Z,49.87
2023-05-16T06:37:27.958Z,49.46
2023-05-16T06:39:55.020Z,49.46
2023-05-16T06:42:22.169Z,49.36
2023-05-16T06:44:50.144Z,49.28
2023-05-16T06:47:17.288Z,48.55
2023-05-16T06:49:44.301Z,48.36
2023-05-16T06:52:11.902Z,48.13
2023-05-16T06:54:39.357Z,47.88
2023-05-16T06:57:08.870Z,47.55
2023-05-16T06:59:36.588Z,47.58
2023-05-16T07:02:04.391Z,47.27
2023-05-16T07:04:32.364Z,47.18
2023-05-16T07:06:59.451Z,47.14
2023-05-16T07:09:29.409Z,47.22
2023-05-16T07:11:56.475Z,47.43
2023-05-16T07:14:23.834Z,47.22
2023-05-16T07:16:51.129Z,46.98
2023-05-16T07:19:19.996Z,46.70
2023-05-16T07:21:47.226Z,46.72
2023-05-16T07:24:14.386Z,46.40
2023-05-16T07:26:42.962Z,46.53
2023-05-16T07:29:11.135Z,46.59
2023-05-16T07:31:38.360Z,46.50
2023-05-16T07:34:05.646Z,46.47
2023-05-16T07:36:35.874Z,46.32
2023-05-16T07:39:03.435Z,46.49
2023-05-16T07:41:33.547Z,46.50
2023-05-16T07:44:00.791Z,46.54
2023-05-16T07:46:28.232Z,46.47
2023-05-16T07:48:55.812Z,46.30
2023-05-16T07:51:22.971Z,46.16
2023-05-16T07:53:52.334Z,46.78
2023-05-16T07:56:19.532Z,46.56
2023-05-16T07:58:48.996Z,46.23
2023-05-16T08:01:17.293Z,46.24
2023-05-16T08:03:44.637Z,46.12
2023-05-16T08:06:11.769Z,46.07
2023-05-16T08:08:38.950Z,46.63
2023-05-16T08:11:06.341Z,46.98
2023-05-16T08:13:33.770Z,47.01
2023-05-16T08:16:01.468Z,47.50
2023-05-16T08:18:28.992Z,46.79
2023-05-16T08:20:56.243Z,46.89
2023-05-16T08:23:23.303Z,46.46
2023-05-16T08:25:50.955Z,45.99
2023-05-16T08:28:18.272Z,45.69
2023-05-16T08:30:47.781Z,45.45
2023-05-16T08:33:15.786Z,44.66
2023-05-16T08:35:44.468Z,45.00
2023-05-16T08:38:11.614Z,45.22
2023-05-16T08:40:39.382Z,45.06
2023-05-16T08:43:06.634Z,44.61
2023-05-16T08:45:33.810Z,44.87
2023-05-16T08:48:01.685Z,44.63
2023-05-16T08:50:32.597Z,45.14
2023-05-16T08:52:59.849Z,45.53
2023-05-16T08:55:27.898Z,45.78
2023-05-16T08:57:55.379Z,45.95
2023-05-16T09:00:22.994Z,46.17
2023-05-16T09:02:50.546Z,46.14
2023-05-16T09:05:17.991Z,46.08
2023-05-16T09:07:45.850Z,46.15
2023-05-16T09:10:19.585Z,46.37
2023-05-16T09:12:47.095Z,45.75
2023-05-16T09:15:14.239Z,45.83
2023-05-16T09:17:45.806Z,44.97
2023-05-16T09:20:19.069Z,44.12
2023-05-16T09:22:55.863Z,43.97
2023-05-16T09:27:57.970Z,41.99
2023-05-16T09:30:30.566Z,41.54
2023-05-16T09:32:58.286Z,40.24
2023-05-16T09:35:39.623Z,39.91
2023-05-16T09:38:17.726Z,40.21
2023-05-16T09:40:45.667Z,40.15
2023-05-16T09:43:16.803Z,40.06
2023-05-16T09:45:48.584Z,39.93
2023-05-16T09:48:17.340Z,39.87
2023-05-16T09:50:51.511Z,39.73
2023-05-16T09:53:26.370Z,39.51
2023-05-16T09:56:08.173Z,40.21
2023-05-16T09:58:36.969Z,40.37
2023-05-16T10:01:04.622Z,40.51
2023-05-16T10:03:34.993Z,40.44
2023-05-16T10:06:04.236Z,40.81
2023-05-16T10:08:32.437Z,40.35
2023-05-16T10:10:59.416Z,40.78
2023-05-16T10:13:31.169Z,41.08
2023-05-16T10:15:59.652Z,41.13
2023-05-16T10:18:31.069Z,40.66
2023-05-16T10:21:17.466Z,40.61
2023-05-16T10:23:46.022Z,41.02
2023-05-16T10:26:15.043Z,40.74
2023-05-16T10:28:42.402Z,40.62
2023-05-16T10:31:10.626Z,40.45
2023-05-16T10:33:37.830Z,40.62
2023-05-16T10:36:05.893Z,40.85
2023-05-16T10:38:34.825Z,41.22
2023-05-16T10:41:01.934Z,41.67
2023-05-16T10:43:31.189Z,41.63
2023-05-16T10:46:07.883Z,41.91
2023-05-16T10:48:39.605Z,42.48
2023-05-16T10:51:39.490Z,42.31
2023-05-16T10:54:10.974Z,41.92
2023-05-16T10:56:38.509Z,40.90
2023-05-16T10:59:06.163Z,40.29
2023-05-16T11:01:34.380Z,40.32
2023-05-16T11:04:05.822Z,40.42
2023-05-16T11:06:42.057Z,40.78
2023-05-16T11:09:22.756Z,41.15
2023-05-16T11:11:53.042Z,41.10
2023-05-16T11:14:37.636Z,41.08
2023-05-16T11:17:12.193Z,40.92
2023-05-16T11:19:59.527Z,40.59
2023-05-16T11:22:29.224Z,40.72
2023-05-16T11:25:04.466Z,40.37
2023-05-16T11:27:32.466Z,40.08
2023-05-16T11:30:03.697Z,40.05
2023-05-16T11:32:32.083Z,39.55
2023-05-16T11:34:59.351Z,39.11
2023-05-16T11:37:26.707Z,39.23
2023-05-16T11:40:02.106Z,39.97
2023-05-16T11:42:31.981Z,39.80
2023-05-16T11:45:13.146Z,39.73
2023-05-16T11:47:40.874Z,39.88
2023-05-16T11:50:12.059Z,40.00
2023-05-16T11:52:39.325Z,40.17
2023-05-16T11:55:08.240Z,40.43
2023-05-16T11:57:36.595Z,40.35
2023-05-16T12:00:16.878Z,40.44
2023-05-16T12:02:51.215Z,40.37
2023-05-16T12:05:20.689Z,40.24
2023-05-16T12:07:48.086Z,40.56
2023-05-16T12:10:16.321Z,40.46
2023-05-16T12:12:45.218Z,40.50
2023-05-16T12:15:12.580Z,40.61
2023-05-16T12:17:40.754Z,40.93
2023-05-16T12:20:12.862Z,40.89
2023-05-16T12:22:45.734Z,41.15
2023-05-16T12:25:46.624Z,41.55
2023-05-16T12:28:14.499Z,41.62
2023-05-16T12:30:43.387Z,41.93
2023-05-16T12:33:12.100Z,42.28
2023-05-16T12:35:43.983Z,42.35
2023-05-16T12:38:13.206Z,42.31
2023-05-16T12:40:41.993Z,42.20
2023-05-16T12:43:22.094Z,42.40
2023-05-16T12:45:56.718Z,42.67
2023-05-16T12:48:24.989Z,42.66
2023-05-16T12:50:54.289Z,42.58
2023-05-16T12:53:22.559Z,42.51
2023-05-16T12:55:49.696Z,42.28
2023-05-16T12:58:16.766Z,42.46
2023-05-16T13:00:44.312Z,42.44
2023-05-16T13:03:12.613Z,42.02
2023-05-16T13:05:40.045Z,42.00
2023-05-16T13:08:07.903Z,41.99
2023-05-16T13:10:34.961Z,41.95
2023-05-16T13:13:02.944Z,41.77
2023-05-16T13:15:30.310Z,41.88
2023-05-16T13:17:57.892Z,41.76
2023-05-16T13:20:25.713Z,42.06
2023-05-16T13:22:52.914Z,42.32
2023-05-16T13:25:20.144Z,42.10
2023-05-16T13:27:49.608Z,42.19
2023-05-16T13:30:16.914Z,42.30
2023-05-16T13:32:44.161Z,43.02
2023-05-16T13:35:11.235Z,43.63
2023-05-16T13:37:38.625Z,43.46
2023-05-16T13:40:10.706Z,43.09
2023-05-16T13:42:38.874Z,43.11
2023-05-16T13:45:07.411Z,43.03
2023-05-16T13:47:34.810Z,42.87
2023-05-16T13:50:06.364Z,43.24
2023-05-16T13:52:35.494Z,43.37
2023-05-16T13:55:05.060Z,43.27
2023-05-16T13:57:33.443Z,43.01
2023-05-16T14:02:42.603Z,43.32
2023-05-16T14:05:10.563Z,43.71
2023-05-16T14:07:37.913Z,43.59
2023-05-16T14:10:07.198Z,43.76
2023-05-16T14:12:34.371Z,44.02
2023-05-16T14:15:01.622Z,43.75
2023-05-16T14:17:29.172Z,43.57
2023-05-16T14:19:56.633Z,43.59
2023-05-16T14:22:23.723Z,43.69
2023-05-16T14:24:51.240Z,43.86
2023-05-16T14:27:18.362Z,43.94
2023-05-16T14:29:46.054Z,43.51
2023-05-16T14:32:14.441Z,43.73
2023-05-16T14:34:42.096Z,44.21
2023-05-16T14:37:10.685Z,44.41
2023-05-16T14:39:38.038Z,44.47
2023-05-16T14:42:08.412Z,45.21
2023-05-16T14:44:36.031Z,45.32
2023-05-16T14:47:04.658Z,45.32
2023-05-16T14:49:32.513Z,44.81
2023-05-16T14:51:59.833Z,45.02
2023-05-16T14:54:28.894Z,45.28
2023-05-16T14:56:57.313Z,44.96
2023-05-16T14:59:25.480Z,44.79
2023-05-16T15:01:52.770Z,44.86
2023-05-16T15:04:20.092Z,45.03
2023-05-16T15:06:47.342Z,45.17
2023-05-16T15:09:14.694Z,45.34
2023-05-16T15:11:42.156Z,45.55
2023-05-16T15:14:09.317Z,45.65
2023-05-16T15:16:36.916Z,45.71
2023-05-16T15:19:04.401Z,45.61
2023-05-16T15:21:32.906Z,45.44
2023-05-16T15:24:00.095Z,45.67
2023-05-16T15:26:27.517Z,45.60
2023-05-16T15:28:56.132Z,45.73
2023-05-16T15:31:23.304Z,45.81
2023-05-16T15:33:51.022Z,45.88
2023-05-16T15:36:18.165Z,45.98
2023-05-16T15:38:45.903Z,46.09
2023-05-16T15:41:31.501Z,46.34
2023-05-16T15:44:01.324Z,46.52
2023-05-16T15:46:30.652Z,46.36
2023-05-16T15:48:57.989Z,46.52
2023-05-16T15:51:25.231Z,46.80
2023-05-16T15:53:52.700Z,46.89
2023-05-16T15:56:19.904Z,46.87
2023-05-16T15:58:47.198Z,46.73
2023-05-16T16:01:14.461Z,46.87
2023-05-16T16:03:41.970Z,46.86
2023-05-16T16:06:09.576Z,46.48
2023-05-16T16:08:36.830Z,46.36
2023-05-16T16:11:05.103Z,46.16
2023-05-16T16:13:32.878Z,46.10
2023-05-16T16:16:00.112Z,45.98
2023-05-16T16:18:27.734Z,45.92
2023-05-16T16:20:55.342Z,45.91
2023-05-16T16:23:25.892Z,45.77
2023-05-16T16:25:53.329Z,45.85
2023-05-16T16:28:22.613Z,45.77
2023-05-16T16:30:50.794Z,45.73
2023-05-16T16:33:18.476Z,46.10
2023-05-16T16:35:45.769Z,46.24
2023-05-16T16:38:12.973Z,46.48
2023-05-16T16:40:40.417Z,46.26
2023-05-16T16:43:07.908Z,46.33
2023-05-16T16:45:35.052Z,46.39
2023-05-16T16:48:02.109Z,46.51
2023-05-16T16:50:29.339Z,46.42
2023-05-16T16:52:56.486Z,46.40
2023-05-16T16:55:23.641Z,46.49
2023-05-16T16:57:50.895Z,46.44
2023-05-16T17:00:18.491Z,46.42
2023-05-16T17:02:45.840Z,46.62
2023-05-16T17:05:14.098Z,46.65
2023-05-16T17:07:41.350Z,46.84
2023-05-16T17:10:09.522Z,47.18
2023-05-16T17:12:39.531Z,47.23
2023-05-16T17:15:07.803Z,47.62
2023-05-16T17:17:35.186Z,47.64
2023-05-16T17:20:07.022Z,47.94
2023-05-16T17:22:34.273Z,47.92
2023-05-16T17:25:01.561Z,47.94
2023-05-16T17:27:28.774Z,48.06
2023-05-16T17:29:56.027Z,48.33
2023-05-16T17:32:23.256Z,48.42
2023-05-16T17:34:51.562Z,48.76
2023-05-16T17:37:18.714Z,48.80
2023-05-16T17:39:46.989Z,48.91
2023-05-16T17:42:14.562Z,49.39
2023-05-16T17:44:41.877Z,49.67
2023-05-16T17:47:09.162Z,50.08
2023-05-16T17:49:36.444Z,50.52
2023-05-16T17:52:04.075Z,50.96
2023-05-16T17:54:32.449Z,51.33
2023-05-16T17:57:00.762Z,51.84
2023-05-16T17:59:28.696Z,52.35
2023-05-16T18:01:56.466Z,53.12
2023-05-16T18:04:24.666Z,53.18
2023-05-16T18:06:54.859Z,53.51
2023-05-16T18:09:22.223Z,53.75
2023-05-16T18:11:52.738Z,53.80
2023-05-16T18:14:19.899Z,53.83
2023-05-16T18:16:47.564Z,53.92
2023-05-16T18:19:17.518Z,54.13
2023-05-16T18:21:45.234Z,54.27
2023-05-16T18:24:13.627Z,54.27
2023-05-16T18:26:41.124Z,54.52
2023-05-16T18:29:10.856Z,54.84
2023-05-16T18:31:41.434Z,55.04
2023-05-16T18:34:10.389Z,55.00
2023-05-16T18:36:38.687Z,54.72
2023-05-16T18:39:07.574Z,54.29
2023-05-16T18:43:50.046Z,53.95
2023-05-16T18:46:17.555Z,53.78
2023-05-16T18:48:45.071Z,53.77
2023-05-16T18:51:15.041Z,53.72
2023-05-16T18:53:42.386Z,53.83
2023-05-16T18:56:09.608Z,53.69
2023-05-16T18:58:37.867Z,53.74
2023-05-16T19:01:05.082Z,53.83
2023-05-16T19:03:35.147Z,54.02
2023-05-16T19:06:02.749Z,54.05
2023-05-16T19:08:36.992Z,54.08
2023-05-16T19:11:14.045Z,53.93
2023-05-16T19:13:41.510Z,53.88
2023-05-16T19:16:08.655Z,53.92
2023-05-16T19:18:36.219Z,53.73
2023-05-16T19:21:03.991Z,53.64
2023-05-16T19:23:31.029Z,53.75
2023-05-16T19:25:58.393Z,53.88
2023-05-16T19:28:25.641Z,53.91
2023-05-16T19:30:53.075Z,54.21
2023-05-16T19:33:29.326Z,54.30
2023-05-16T19:35:58.911Z,54.49
2023-05-16T19:38:26.731Z,54.42
2023-05-16T19:40:53.821Z,54.43
2023-05-16T19:43:20.968Z,54.35
2023-05-16T19:45:48.403Z,54.28
2023-05-16T19:48:15.695Z,54.26
2023-05-16T19:50:43.023Z,54.14
2023-05-16T19:53:10.280Z,54.25
2023-05-16T19:55:38.133Z,54.33
2023-05-16T19:58:06.102Z,54.24
2023-05-16T20:00:33.211Z,54.28
2023-05-16T20:03:00.605Z,54.36
2023-05-16T20:05:28.077Z,54.40
2023-05-16T20:07:56.341Z,54.39
2023-05-16T20:10:23.707Z,54.33
2023-05-16T20:12:51.869Z,54.35
2023-05-16T20:15:19.143Z,54.35
2023-05-16T20:17:46.612Z,54.35
2023-05-16T20:20:16.702Z,54.27
2023-05-16T20:22:43.954Z,54.33
2023-05-16T20:25:11.725Z,54.37
2023-05-16T20:27:38.975Z,54.33
2023-05-16T20:30:07.736Z,54.31
2023-05-16T20:32:35.088Z,54.36
2023-05-16T20:35:05.082Z,54.48
2023-05-16T20:37:32.349Z,54.50
2023-05-16T20:39:59.486Z,54.60
2023-05-16T20:42:26.699Z,54.67
2023-05-16T20:44:53.831Z,54.61
2023-05-16T20:47:21.181Z,54.73
2023-05-16T20:49:48.180Z,54.83
2023-05-16T20:52:15.309Z,54.77
2023-05-16T20:54:42.559Z,54.85
2023-05-16T20:57:09.643Z,55.11
2023-05-16T20:59:37.835Z,54.94
2023-05-16T21:02:06.246Z,54.99
2023-05-16T21:04:33.393Z,55.03
2023-05-16T21:07:00.549Z,55.05
2023-05-16T21:09:27.689Z,55.19
2023-05-16T21:11:54.933Z,55.12
2023-05-16T21:14:21.986Z,55.25
2023-05-16T21:16:49.237Z,55.49
2023-05-16T21:19:16.513Z,55.54
2023-05-16T21:21:43.759Z,55.64
2023-05-16T21:24:11.427Z,55.97
2023-05-16T21:26:38.673Z,55.99
2023-05-16T21:29:05.835Z,56.12
2023-05-16T21:31:33.078Z,56.35
2023-05-16T21:34:00.189Z,56.57
2023-05-16T21:36:27.309Z,56.63
2023-05-16T21:38:54.479Z,56.69
2023-05-16T21:41:22.684Z,57.01
2023-05-16T21:43:49.816Z,57.29
2023-05-16T21:46:17.274Z,57.54
2023-05-16T21:48:44.739Z,57.86
2023-05-16T21:51:12.194Z,58.21
2023-05-16T21:53:39.462Z,58.73
2023-05-16T21:56:07.539Z,59.01
2023-05-16T21:58:35.128Z,59.37
2023-05-16T22:01:02.333Z,59.61
2023-05-16T22:03:29.574Z,59.84
2023-05-16T22:05:58.486Z,59.91
2023-05-16T22:08:25.691Z,59.96
2023-05-16T22:10:52.939Z,59.83
2023-05-16T22:13:20.450Z,59.66
2023-05-16T22:15:59.382Z,59.70
2023-05-16T22:18:31.395Z,59.74
2023-05-16T22:20:58.812Z,59.85
2023-05-16T22:23:25.961Z,60.17
2023-05-16T22:25:53.031Z,60.61
2023-05-16T22:28:20.180Z,60.92
2023-05-16T22:30:47.559Z,61.58
2023-05-16T22:33:14.638Z,62.25
2023-05-16T22:35:41.869Z,62.86
2023-05-16T22:38:09.017Z,63.06
2023-05-16T22:40:36.173Z,62.77
2023-05-16T22:43:03.339Z,62.41
2023-05-16T22:45:31.197Z,61.98
2023-05-16T22:47:58.387Z,61.67
2023-05-16T22:50:25.595Z,61.31
2023-05-16T22:52:52.744Z,61.05
2023-05-16T22:55:20.199Z,60.97
2023-05-16T22:57:47.407Z,60.80
2023-05-16T23:00:15.119Z,60.78
2023-05-16T23:02:42.465Z,60.92
2023-05-16T23:05:10.235Z,61.05
2023-05-16T23:07:37.349Z,61.15
2023-05-16T23:10:05.040Z,61.44
2023-05-16T23:12:32.294Z,61.48
2023-05-16T23:14:59.526Z,61.81
2023-05-16T23:17:26.556Z,61.78
2023-05-16T23:19:53.760Z,61.67
2023-05-16T23:22:20.956Z,61.46
2023-05-16T23:24:48.213Z,61.24
2023-05-16T23:27:15.465Z,60.95
2023-05-16T23:29:42.684Z,61.00
2023-05-16T23:32:09.864Z,61.05
2023-05-16T23:34:37.016Z,60.87
2023-05-16T23:37:04.166Z,60.78
2023-05-16T23:39:31.317Z,60.77
2023-05-16T23:42:00.925Z,61.05
2023-05-16T23:44:28.282Z,61.26
2023-05-16T23:46:55.451Z,61.29
2023-05-16T23:49:22.495Z,61.31
2023-05-16T23:51:57.270Z,61.37
2023-05-16T23:54:29.605Z,61.46
2023-05-16T23:56:56.648Z,61.64
2023-05-16T23:59:23.798Z,61.55
